Upstream stations:
Downstream station:
SHEF ID: COMO2 Neosho River nr Commerce, OK
STATION TYPE:
Regulating: Stage = 15.00, Flow = 22115
PRECIP STAGE STAGE(2) RIV-FLOW BAT-LOAD
in ft ft cfs volt
Ccp-Rev Ccp-Rev Ccp-Rev Ccp-Rev Ccp-Rev
(US/Central)
03/22 00:00 0.01 3.14 11.45 1122 12.49
03/22 01:00 0.02 3.23 11.62 1251 12.41
03/22 02:00 0.01 3.32 11.68 1384 12.41
03/22 03:00 0.01 3.45 11.95 1580 12.41
03/22 04:00 0.00 3.60 12.07 1814 12.41
03/22 05:00 0.01 3.74 12.38 2036 12.41
03/22 06:00 0.01 3.98 12.58 2417 12.41
03/22 07:00 0.00 4.33 12.73 2974 12.41
03/22 08:00 0.01 4.63 13.18 3451 12.41
03/22 09:00 0.00 4.94 13.75 3946 12.41
03/22 10:00 0.01 5.42 14.10 4728 12.41
03/22 11:00 0.00 5.80 14.56 5358 12.49
03/22 12:00 0.00 6.25 15.06 6112 12.49
03/22 13:00 0.01 6.70 15.18 6863 12.65
03/22 14:00 0.00 7.08 15.62 7503 12.65
03/22 15:00 0.00 7.47 16.31 8164 12.73
03/22 16:00 0.00 7.82 16.57 8763 12.97
03/22 17:00 0.00 8.14 16.86 9315 12.73
03/22 18:00 0.00 8.50 17.31 9939 12.57
03/22 19:00 0.00 8.85 17.91 10550 12.49
03/22 20:00 0.00 9.22 18.37 11199 12.41
03/22 21:00 0.00 9.55 18.88 11782 12.41
03/22 22:00 0.01 9.92 19.29 12439 12.41
03/22 23:00 0.00 10.30 19.80 13118 12.41